sensor_id;sensor_type;location;lat;lon;timestamp;temperature;humidity
6206;DHT22;3136;48.788;9.772;2023-11-21T00:02:21;7.70;1.00
6206;DHT22;3136;48.788;9.772;2023-11-21T00:04:48;7.70;1.00
6206;DHT22;3136;48.788;9.772;2023-11-21T00:07:14;7.70;1.00
6206;DHT22;3136;48.788;9.772;2023-11-21T00:09:40;7.70;1.00
6206;DHT22;3136;48.788;9.772;2023-11-21T00:12:07;7.70;1.00
6206;DHT22;3136;48.788;9.772;2023-11-21T00:14:36;7.70;1.00
6206;DHT22;3136;48.788;9.772;2023-11-21T00:17:02;7.70;1.00
6206;DHT22;3136;48.788;9.772;2023-11-21T00:19:28;7.70;1.00
6206;DHT22;3136;48.788;9.772;2023-11-21T00:21:53;7.60;1.00
6206;DHT22;3136;48.788;9.772;2023-11-21T00:24:19;7.60;1.00
6206;DHT22;3136;48.788;9.772;2023-11-21T00:26:45;8.60;1.00
6206;DHT22;3136;48.788;9.772;2023-11-21T00:29:10;7.60;1.00
6206;DHT22;3136;48.788;9.772;2023-11-21T00:31:36;7.60;1.00
6206;DHT22;3136;48.788;9.772;2023-11-21T00:34:03;7.70;1.00
6206;DHT22;3136;48.788;9.772;2023-11-21T00:36:31;7.70;1.00
6206;DHT22;3136;48.788;9.772;2023-11-21T00:38:57;7.70;1.00
6206;DHT22;3136;48.788;9.772;2023-11-21T00:41:22;7.60;1.00
6206;DHT22;3136;48.788;9.772;2023-11-21T00:43:48;7.60;1.00
6206;DHT22;3136;48.788;9.772;2023-11-21T00:46:14;7.60;1.00
6206;DHT22;3136;48.788;9.772;2023-11-21T00:48:39;7.60;1.00
6206;DHT22;3136;48.788;9.772;2023-11-21T00:51:05;7.60;1.00
6206;DHT22;3136;48.788;9.772;2023-11-21T00:53:31;7.60;2.00
6206;DHT22;3136;48.788;9.772;2023-11-21T00:55:57;7.60;3.70
6206;DHT22;3136;48.788;9.772;2023-11-21T00:58:26;7.60;4.40
6206;DHT22;3136;48.788;9.772;2023-11-21T01:00:51;7.60;4.20
6206;DHT22;3136;48.788;9.772;2023-11-21T01:03:18;7.60;3.70
6206;DHT22;3136;48.788;9.772;2023-11-21T01:05:44;7.60;3.00
6206;DHT22;3136;48.788;9.772;2023-11-21T01:08:10;7.60;4.30
6206;DHT22;3136;48.788;9.772;2023-11-21T01:10:36;7.70;6.20
6206;DHT22;3136;48.788;9.772;2023-11-21T01:13:02;7.60;6.10
6206;DHT22;3136;48.788;9.772;2023-11-21T01:15:31;8.00;6.80
6206;DHT22;3136;48.788;9.772;2023-11-21T01:17:57;7.80;9.00
6206;DHT22;3136;48.788;9.772;2023-11-21T01:20:22;7.70;10.90
6206;DHT22;3136;48.788;9.772;2023-11-21T01:22:48;7.70;12.30
6206;DHT22;3136;48.788;9.772;2023-11-21T01:25:14;7.60;11.60
6206;DHT22;3136;48.788;9.772;2023-11-21T01:27:41;7.70;11.00
6206;DHT22;3136;48.788;9.772;2023-11-21T01:30:07;7.60;10.70
6206;DHT22;3136;48.788;9.772;2023-11-21T01:32:34;7.60;12.10
6206;DHT22;3136;48.788;9.772;2023-11-21T01:35:00;7.70;13.30
6206;DHT22;3136;48.788;9.772;2023-11-21T01:37:26;7.70;13.60
6206;DHT22;3136;48.788;9.772;2023-11-21T01:39:54;7.70;13.00
6206;DHT22;3136;48.788;9.772;2023-11-21T01:42:20;7.60;12.30
6206;DHT22;3136;48.788;9.772;2023-11-21T01:44:46;7.70;13.20
6206;DHT22;3136;48.788;9.772;2023-11-21T01:47:13;7.70;14.10
6206;DHT22;3136;48.788;9.772;2023-11-21T01:49:38;7.70;13.90
6206;DHT22;3136;48.788;9.772;2023-11-21T01:52:05;7.70;14.90
6206;DHT22;3136;48.788;9.772;2023-11-21T01:54:32;7.70;16.40
6206;DHT22;3136;48.788;9.772;2023-11-21T01:57:00;7.70;18.00
6206;DHT22;3136;48.788;9.772;2023-11-21T01:59:34;7.70;19.20
6206;DHT22;3136;48.788;9.772;2023-11-21T02:02:00;7.80;20.30
6206;DHT22;3136;48.788;9.772;2023-11-21T02:04:25;8.10;21.00
6206;DHT22;3136;48.788;9.772;2023-11-21T02:06:51;9.20;20.30
6206;DHT22;3136;48.788;9.772;2023-11-21T02:09:17;7.80;20.10
6206;DHT22;3136;48.788;9.772;2023-11-21T02:11:48;7.80;20.80
6206;DHT22;3136;48.788;9.772;2023-11-21T02:14:14;7.80;21.20
6206;DHT22;3136;48.788;9.772;2023-11-21T02:16:40;7.70;20.70
6206;DHT22;3136;48.788;9.772;2023-11-21T02:19:08;7.70;21.10
6206;DHT22;3136;48.788;9.772;2023-11-21T02:21:36;7.70;21.10
6206;DHT22;3136;48.788;9.772;2023-11-21T02:24:06;7.70;21.00
6206;DHT22;3136;48.788;9.772;2023-11-21T02:26:31;7.70;21.30
6206;DHT22;3136;48.788;9.772;2023-11-21T02:28:57;7.70;21.70
6206;DHT22;3136;48.788;9.772;2023-11-21T02:31:23;7.80;22.60
6206;DHT22;3136;48.788;9.772;2023-11-21T02:33:49;7.80;23.10
6206;DHT22;3136;48.788;9.772;2023-11-21T02:36:14;7.80;23.80
6206;DHT22;3136;48.788;9.772;2023-11-21T02:38:40;7.80;24.80
6206;DHT22;3136;48.788;9.772;2023-11-21T02:41:05;7.80;25.50
6206;DHT22;3136;48.788;9.772;2023-11-21T02:43:31;7.80;25.50
6206;DHT22;3136;48.788;9.772;2023-11-21T02:45:56;7.80;25.80
6206;DHT22;3136;48.788;9.772;2023-11-21T02:48:22;7.80;26.20
6206;DHT22;3136;48.788;9.772;2023-11-21T02:50:51;7.80;26.20
6206;DHT22;3136;48.788;9.772;2023-11-21T02:53:18;7.80;26.10
6206;DHT22;3136;48.788;9.772;2023-11-21T02:55:44;7.80;25.50
6206;DHT22;3136;48.788;9.772;2023-11-21T02:58:09;7.80;25.20
6206;DHT22;3136;48.788;9.772;2023-11-21T03:00:35;7.80;25.30
6206;DHT22;3136;48.788;9.772;2023-11-21T03:03:00;8.10;25.30
6206;DHT22;3136;48.788;9.772;2023-11-21T03:05:26;7.80;25.20
6206;DHT22;3136;48.788;9.772;2023-11-21T03:07:52;8.30;25.90
6206;DHT22;3136;48.788;9.772;2023-11-21T03:10:17;7.80;25.80
6206;DHT22;3136;48.788;9.772;2023-11-21T03:12:43;9.00;26.80
6206;DHT22;3136;48.788;9.772;2023-11-21T03:15:09;7.80;27.00
6206;DHT22;3136;48.788;9.772;2023-11-21T03:17:35;7.80;27.80
6206;DHT22;3136;48.788;9.772;2023-11-21T03:20:01;7.80;28.60
6206;DHT22;3136;48.788;9.772;2023-11-21T03:22:28;7.80;28.60
6206;DHT22;3136;48.788;9.772;2023-11-21T03:24:53;7.80;27.90
6206;DHT22;3136;48.788;9.772;2023-11-21T03:27:19;7.80;27.80
6206;DHT22;3136;48.788;9.772;2023-11-21T03:29:45;7.80;28.00
6206;DHT22;3136;48.788;9.772;2023-11-21T03:32:12;7.80;28.70
6206;DHT22;3136;48.788;9.772;2023-11-21T03:34:53;7.80;29.40
6206;DHT22;3136;48.788;9.772;2023-11-21T03:37:20;7.80;29.90
6206;DHT22;3136;48.788;9.772;2023-11-21T03:39:46;7.80;29.40
6206;DHT22;3136;48.788;9.772;2023-11-21T03:42:11;7.80;29.70
6206;DHT22;3136;48.788;9.772;2023-11-21T03:44:37;7.80;30.20
6206;DHT22;3136;48.788;9.772;2023-11-21T03:47:03;9.40;31.50
6206;DHT22;3136;48.788;9.772;2023-11-21T03:49:29;7.80;30.40
6206;DHT22;3136;48.788;9.772;2023-11-21T03:51:55;7.80;30.50
6206;DHT22;3136;48.788;9.772;2023-11-21T03:54:21;7.70;30.80
6206;DHT22;3136;48.788;9.772;2023-11-21T03:56:47;7.70;31.30
6206;DHT22;3136;48.788;9.772;2023-11-21T03:59:12;7.80;32.50
6206;DHT22;3136;48.788;9.772;2023-11-21T04:01:38;7.80;33.30
6206;DHT22;3136;48.788;9.772;2023-11-21T04:04:03;7.80;33.80
6206;DHT22;3136;48.788;9.772;2023-11-21T04:06:29;7.90;33.60
6206;DHT22;3136;48.788;9.772;2023-11-21T04:08:55;7.80;33.20
6206;DHT22;3136;48.788;9.772;2023-11-21T04:11:20;7.90;33.60
6206;DHT22;3136;48.788;9.772;2023-11-21T04:13:46;7.80;33.70
6206;DHT22;3136;48.788;9.772;2023-11-21T04:16:12;7.80;34.20
6206;DHT22;3136;48.788;9.772;2023-11-21T04:18:38;7.90;35.00
6206;DHT22;3136;48.788;9.772;2023-11-21T04:21:07;7.90;35.70
6206;DHT22;3136;48.788;9.772;2023-11-21T04:23:35;7.90;36.50
6206;DHT22;3136;48.788;9.772;2023-11-21T04:26:01;7.90;37.50
6206;DHT22;3136;48.788;9.772;2023-11-21T04:28:27;8.00;38.30
6206;DHT22;3136;48.788;9.772;2023-11-21T04:30:53;7.90;37.80
6206;DHT22;3136;48.788;9.772;2023-11-21T04:33:19;7.90;37.00
6206;DHT22;3136;48.788;9.772;2023-11-21T04:35:45;7.90;36.20
6206;DHT22;3136;48.788;9.772;2023-11-21T04:38:10;7.90;35.90
6206;DHT22;3136;48.788;9.772;2023-11-21T04:40:36;7.90;35.70
6206;DHT22;3136;48.788;9.772;2023-11-21T04:43:01;7.90;35.80
6206;DHT22;3136;48.788;9.772;2023-11-21T04:45:27;7.90;36.30
6206;DHT22;3136;48.788;9.772;2023-11-21T04:47:53;7.90;36.80
6206;DHT22;3136;48.788;9.772;2023-11-21T04:50:19;7.90;36.80
6206;DHT22;3136;48.788;9.772;2023-11-21T04:52:45;8.40;37.50
6206;DHT22;3136;48.788;9.772;2023-11-21T04:55:10;7.90;37.90
6206;DHT22;3136;48.788;9.772;2023-11-21T04:57:36;7.90;38.60
6206;DHT22;3136;48.788;9.772;2023-11-21T05:00:03;7.90;39.20
6206;DHT22;3136;48.788;9.772;2023-11-21T05:02:34;7.90;40.00
6206;DHT22;3136;48.788;9.772;2023-11-21T05:05:00;7.90;40.10
6206;DHT22;3136;48.788;9.772;2023-11-21T05:07:26;7.90;39.30
6206;DHT22;3136;48.788;9.772;2023-11-21T05:09:54;7.90;38.60
6206;DHT22;3136;48.788;9.772;2023-11-21T05:12:22;7.90;39.00
6206;DHT22;3136;48.788;9.772;2023-11-21T05:14:49;7.90;39.40
6206;DHT22;3136;48.788;9.772;2023-11-21T05:17:14;7.90;39.70
6206;DHT22;3136;48.788;9.772;2023-11-21T05:19:40;7.90;39.90
6206;DHT22;3136;48.788;9.772;2023-11-21T05:22:06;7.90;40.70
6206;DHT22;3136;48.788;9.772;2023-11-21T05:24:31;7.90;41.50
6206;DHT22;3136;48.788;9.772;2023-11-21T05:26:57;7.90;42.10
6206;DHT22;3136;48.788;9.772;2023-11-21T05:29:23;7.90;42.40
6206;DHT22;3136;48.788;9.772;2023-11-21T05:31:48;7.90;42.80
6206;DHT22;3136;48.788;9.772;2023-11-21T05:34:15;8.00;43.50
6206;DHT22;3136;48.788;9.772;2023-11-21T05:36:43;7.90;43.90
6206;DHT22;3136;48.788;9.772;2023-11-21T05:39:08;7.90;43.60
6206;DHT22;3136;48.788;9.772;2023-11-21T05:41:36;8.00;43.10
6206;DHT22;3136;48.788;9.772;2023-11-21T05:44:02;7.90;43.10
6206;DHT22;3136;48.788;9.772;2023-11-21T05:46:27;7.90;43.10
6206;DHT22;3136;48.788;9.772;2023-11-21T05:48:53;8.00;43.10
6206;DHT22;3136;48.788;9.772;2023-11-21T05:51:19;8.20;42.70
6206;DHT22;3136;48.788;9.772;2023-11-21T05:53:44;8.00;42.10
6206;DHT22;3136;48.788;9.772;2023-11-21T05:56:10;8.00;41.80
6206;DHT22;3136;48.788;9.772;2023-11-21T05:58:35;7.90;41.20
6206;DHT22;3136;48.788;9.772;2023-11-21T06:01:01;7.90;41.40
6206;DHT22;3136;48.788;9.772;2023-11-21T06:03:27;7.90;41.20
6206;DHT22;3136;48.788;9.772;2023-11-21T06:05:53;7.90;40.50
6206;DHT22;3136;48.788;9.772;2023-11-21T06:08:19;7.80;40.30
6206;DHT22;3136;48.788;9.772;2023-11-21T06:10:44;7.80;41.10
6206;DHT22;3136;48.788;9.772;2023-11-21T06:13:10;7.80;42.10
6206;DHT22;3136;48.788;9.772;2023-11-21T06:15:36;7.80;42.30
6206;DHT22;3136;48.788;9.772;2023-11-21T06:18:01;7.80;42.40
6206;DHT22;3136;48.788;9.772;2023-11-21T06:20:27;7.80;42.50
6206;DHT22;3136;48.788;9.772;2023-11-21T06:22:53;7.80;42.90
6206;DHT22;3136;48.788;9.772;2023-11-21T06:25:19;7.80;43.30
6206;DHT22;3136;48.788;9.772;2023-11-21T06:27:46;7.80;43.80
6206;DHT22;3136;48.788;9.772;2023-11-21T06:30:13;7.80;44.30
6206;DHT22;3136;48.788;9.772;2023-11-21T06:32:41;7.80;44.60
6206;DHT22;3136;48.788;9.772;2023-11-21T06:35:07;7.80;44.90
6206;DHT22;3136;48.788;9.772;2023-11-21T06:37:36;7.80;45.30
6206;DHT22;3136;48.788;9.772;2023-11-21T06:40:02;7.80;45.60
6206;DHT22;3136;48.788;9.772;2023-11-21T06:42:32;7.90;45.80
6206;DHT22;3136;48.788;9.772;2023-11-21T06:44:59;7.90;46.00
6206;DHT22;3136;48.788;9.772;2023-11-21T06:47:25;7.80;46.40
6206;DHT22;3136;48.788;9.772;2023-11-21T06:49:51;7.80;46.80
6206;DHT22;3136;48.788;9.772;2023-11-21T06:52:18;7.80;46.70
6206;DHT22;3136;48.788;9.772;2023-11-21T06:54:43;7.80;46.70
6206;DHT22;3136;48.788;9.772;2023-11-21T06:57:09;7.90;46.60
6206;DHT22;3136;48.788;9.772;2023-11-21T06:59:35;7.90;46.90
6206;DHT22;3136;48.788;9.772;2023-11-21T07:02:01;7.90;47.10
6206;DHT22;3136;48.788;9.772;2023-11-21T07:04:26;7.90;47.20
6206;DHT22;3136;48.788;9.772;2023-11-21T07:06:53;7.90;47.70
6206;DHT22;3136;48.788;9.772;2023-11-21T07:09:19;7.90;47.90
6206;DHT22;3136;48.788;9.772;2023-11-21T07:11:50;7.90;48.30
6206;DHT22;3136;48.788;9.772;2023-11-21T07:14:16;7.90;48.50
6206;DHT22;3136;48.788;9.772;2023-11-21T07:16:42;7.90;48.90
6206;DHT22;3136;48.788;9.772;2023-11-21T07:19:08;7.90;49.50
6206;DHT22;3136;48.788;9.772;2023-11-21T07:21:34;8.00;50.50
6206;DHT22;3136;48.788;9.772;2023-11-21T07:24:05;8.00;51.40
6206;DHT22;3136;48.788;9.772;2023-11-21T07:26:31;8.00;51.30
6206;DHT22;3136;48.788;9.772;2023-11-21T07:28:57;8.00;51.20
6206;DHT22;3136;48.788;9.772;2023-11-21T07:31:23;8.10;51.70
6206;DHT22;3136;48.788;9.772;2023-11-21T07:33:49;8.10;51.80
6206;DHT22;3136;48.788;9.772;2023-11-21T07:36:16;8.00;51.50
6206;DHT22;3136;48.788;9.772;2023-11-21T07:38:44;8.00;51.20
6206;DHT22;3136;48.788;9.772;2023-11-21T07:41:10;8.00;51.20
6206;DHT22;3136;48.788;9.772;2023-11-21T07:43:36;8.10;51.80
6206;DHT22;3136;48.788;9.772;2023-11-21T07:46:03;8.10;52.10
6206;DHT22;3136;48.788;9.772;2023-11-21T07:48:32;8.10;52.00
6206;DHT22;3136;48.788;9.772;2023-11-21T07:50:58;8.10;52.30
6206;DHT22;3136;48.788;9.772;2023-11-21T07:53:24;8.10;52.50
6206;DHT22;3136;48.788;9.772;2023-11-21T07:56:03;8.10;52.50
6206;DHT22;3136;48.788;9.772;2023-11-21T07:58:29;8.10;52.80
6206;DHT22;3136;48.788;9.772;2023-11-21T08:00:54;8.20;53.60
6206;DHT22;3136;48.788;9.772;2023-11-21T08:03:20;8.20;54.60
6206;DHT22;3136;48.788;9.772;2023-11-21T08:05:46;8.30;55.70
6206;DHT22;3136;48.788;9.772;2023-11-21T08:08:12;8.30;56.60
6206;DHT22;3136;48.788;9.772;2023-11-21T08:10:37;8.40;57.60
6206;DHT22;3136;48.788;9.772;2023-11-21T08:13:05;8.50;58.00
6206;DHT22;3136;48.788;9.772;2023-11-21T08:15:31;8.50;58.90
6206;DHT22;3136;48.788;9.772;2023-11-21T08:17:58;8.60;59.80
6206;DHT22;3136;48.788;9.772;2023-11-21T08:20:24;8.60;59.80
6206;DHT22;3136;48.788;9.772;2023-11-21T08:22:50;8.60;58.60
6206;DHT22;3136;48.788;9.772;2023-11-21T08:25:17;8.70;57.60
6206;DHT22;3136;48.788;9.772;2023-11-21T08:27:45;8.60;55.80
6206;DHT22;3136;48.788;9.772;2023-11-21T08:30:11;8.50;54.70
6206;DHT22;3136;48.788;9.772;2023-11-21T08:32:37;8.50;54.00
6206;DHT22;3136;48.788;9.772;2023-11-21T08:35:03;8.50;54.20
6206;DHT22;3136;48.788;9.772;2023-11-21T08:37:29;8.60;55.20
6206;DHT22;3136;48.788;9.772;2023-11-21T08:39:58;8.60;55.20
6206;DHT22;3136;48.788;9.772;2023-11-21T08:42:24;8.70;56.30
6206;DHT22;3136;48.788;9.772;2023-11-21T08:44:50;8.70;57.50
6206;DHT22;3136;48.788;9.772;2023-11-21T08:47:16;8.70;58.10
6206;DHT22;3136;48.788;9.772;2023-11-21T08:49:42;8.80;57.80
6206;DHT22;3136;48.788;9.772;2023-11-21T08:52:08;8.80;57.10
6206;DHT22;3136;48.788;9.772;2023-11-21T08:54:33;8.80;56.20
6206;DHT22;3136;48.788;9.772;2023-11-21T08:56:59;8.80;54.50
6206;DHT22;3136;48.788;9.772;2023-11-21T08:59:26;8.80;54.40
6206;DHT22;3136;48.788;9.772;2023-11-21T09:01:52;8.80;53.40
6206;DHT22;3136;48.788;9.772;2023-11-21T09:04:20;8.80;50.30
6206;DHT22;3136;48.788;9.772;2023-11-21T09:06:46;8.80;46.70
6206;DHT22;3136;48.788;9.772;2023-11-21T09:09:11;8.80;45.00
6206;DHT22;3136;48.788;9.772;2023-11-21T09:11:37;8.70;45.00
6206;DHT22;3136;48.788;9.772;2023-11-21T09:14:03;8.80;45.50
6206;DHT22;3136;48.788;9.772;2023-11-21T09:16:29;8.80;44.50
6206;DHT22;3136;48.788;9.772;2023-11-21T09:18:55;8.90;45.20
6206;DHT22;3136;48.788;9.772;2023-11-21T09:21:20;9.00;45.40
6206;DHT22;3136;48.788;9.772;2023-11-21T09:23:46;9.00;41.20
6206;DHT22;3136;48.788;9.772;2023-11-21T09:26:12;9.00;36.90
6206;DHT22;3136;48.788;9.772;2023-11-21T09:28:38;9.00;33.80
6206;DHT22;3136;48.788;9.772;2023-11-21T09:31:04;9.00;30.20
6206;DHT22;3136;48.788;9.772;2023-11-21T09:33:30;9.00;27.60
6206;DHT22;3136;48.788;9.772;2023-11-21T09:35:57;9.10;26.60
6206;DHT22;3136;48.788;9.772;2023-11-21T09:38:23;9.10;24.50
6206;DHT22;3136;48.788;9.772;2023-11-21T09:40:48;9.10;23.00
6206;DHT22;3136;48.788;9.772;2023-11-21T09:43:18;9.20;23.40
6206;DHT22;3136;48.788;9.772;2023-11-21T09:45:51;9.20;14.70
6206;DHT22;3136;48.788;9.772;2023-11-21T09:48:20;9.20;3.10
6206;DHT22;3136;48.788;9.772;2023-11-21T09:50:47;9.20;1.00
6206;DHT22;3136;48.788;9.772;2023-11-21T09:53:17;9.30;1.00
6206;DHT22;3136;48.788;9.772;2023-11-21T09:55:47;9.30;1.00
6206;DHT22;3136;48.788;9.772;2023-11-21T09:58:14;9.40;1.00
6206;DHT22;3136;48.788;9.772;2023-11-21T10:00:41;9.50;1.00
6206;DHT22;3136;48.788;9.772;2023-11-21T10:03:07;9.60;1.00
6206;DHT22;3136;48.788;9.772;2023-11-21T10:05:32;9.70;1.00
6206;DHT22;3136;48.788;9.772;2023-11-21T10:08:00;9.70;1.00
6206;DHT22;3136;48.788;9.772;2023-11-21T10:10:27;9.70;1.00
6206;DHT22;3136;48.788;9.772;2023-11-21T10:12:56;9.60;1.00
6206;DHT22;3136;48.788;9.772;2023-11-21T10:15:23;9.90;1.00
6206;DHT22;3136;48.788;9.772;2023-11-21T10:17:50;9.60;1.00
6206;DHT22;3136;48.788;9.772;2023-11-21T10:20:23;9.60;1.00
6206;DHT22;3136;48.788;9.772;2023-11-21T10:22:49;9.60;1.00
6206;DHT22;3136;48.788;9.772;2023-11-21T10:25:15;9.50;1.00
6206;DHT22;3136;48.788;9.772;2023-11-21T10:27:42;9.50;1.00
6206;DHT22;3136;48.788;9.772;2023-11-21T10:30:09;9.50;1.00
6206;DHT22;3136;48.788;9.772;2023-11-21T10:32:38;9.50;1.00
6206;DHT22;3136;48.788;9.772;2023-11-21T10:35:03;9.60;1.00
6206;DHT22;3136;48.788;9.772;2023-11-21T10:37:39;9.60;1.00
6206;DHT22;3136;48.788;9.772;2023-11-21T10:40:06;9.60;1.00
6206;DHT22;3136;48.788;9.772;2023-11-21T10:42:33;9.60;1.00
6206;DHT22;3136;48.788;9.772;2023-11-21T10:44:59;9.70;1.00
6206;DHT22;3136;48.788;9.772;2023-11-21T10:47:26;9.60;1.00
6206;DHT22;3136;48.788;9.772;2023-11-21T10:49:52;9.70;1.00
6206;DHT22;3136;48.788;9.772;2023-11-21T10:52:20;9.80;1.00
6206;DHT22;3136;48.788;9.772;2023-11-21T10:54:46;9.80;1.00
6206;DHT22;3136;48.788;9.772;2023-11-21T10:57:17;9.90;1.00
6206;DHT22;3136;48.788;9.772;2023-11-21T10:59:46;9.90;1.00
6206;DHT22;3136;48.788;9.772;2023-11-21T11:02:23;10.00;1.00
6206;DHT22;3136;48.788;9.772;2023-11-21T11:05:00;10.00;1.00
6206;DHT22;3136;48.788;9.772;2023-11-21T11:07:27;10.00;1.00
6206;DHT22;3136;48.788;9.772;2023-11-21T11:09:54;9.90;1.00
6206;DHT22;3136;48.788;9.772;2023-11-21T11:12:20;9.80;1.00
6206;DHT22;3136;48.788;9.772;2023-11-21T11:14:46;9.80;1.00
6206;DHT22;3136;48.788;9.772;2023-11-21T11:17:13;9.70;1.00
6206;DHT22;3136;48.788;9.772;2023-11-21T11:19:39;9.70;1.00
6206;DHT22;3136;48.788;9.772;2023-11-21T11:25:35;9.60;1.00
6206;DHT22;3136;48.788;9.772;2023-11-21T11:33:42;9.60;1.00
6206;DHT22;3136;48.788;9.772;2023-11-21T11:36:29;9.70;1.00
6206;DHT22;3136;48.788;9.772;2023-11-21T11:38:56;9.70;1.00
6206;DHT22;3136;48.788;9.772;2023-11-21T11:41:27;9.70;1.00
6206;DHT22;3136;48.788;9.772;2023-11-21T11:43:53;9.80;1.00
6206;DHT22;3136;48.788;9.772;2023-11-21T11:46:19;9.90;1.00
6206;DHT22;3136;48.788;9.772;2023-11-21T11:48:48;10.00;1.00
6206;DHT22;3136;48.788;9.772;2023-11-21T11:51:15;10.00;1.00
6206;DHT22;3136;48.788;9.772;2023-11-21T11:53:43;10.10;99.90
6206;DHT22;3136;48.788;9.772;2023-11-21T11:56:23;10.30;99.90
6206;DHT22;3136;48.788;9.772;2023-11-21T11:58:51;10.40;99.90
6206;DHT22;3136;48.788;9.772;2023-11-21T12:01:19;10.50;99.90
6206;DHT22;3136;48.788;9.772;2023-11-21T12:03:47;10.60;99.90
6206;DHT22;3136;48.788;9.772;2023-11-21T12:06:34;10.80;99.90
6206;DHT22;3136;48.788;9.772;2023-11-21T12:09:03;11.20;1.00
6206;DHT22;3136;48.788;9.772;2023-11-21T12:11:32;11.60;1.00
6206;DHT22;3136;48.788;9.772;2023-11-21T12:13:58;11.50;1.00
6206;DHT22;3136;48.788;9.772;2023-11-21T12:16:25;11.30;99.90
6206;DHT22;3136;48.788;9.772;2023-11-21T12:18:54;11.20;1.00
6206;DHT22;3136;48.788;9.772;2023-11-21T12:21:23;11.10;99.90
6206;DHT22;3136;48.788;9.772;2023-11-21T12:23:49;11.20;99.90
6206;DHT22;3136;48.788;9.772;2023-11-21T12:26:14;11.20;1.00
6206;DHT22;3136;48.788;9.772;2023-11-21T12:28:40;11.30;1.00
6206;DHT22;3136;48.788;9.772;2023-11-21T12:31:08;11.40;99.90
6206;DHT22;3136;48.788;9.772;2023-11-21T12:33:34;11.50;1.00
6206;DHT22;3136;48.788;9.772;2023-11-21T12:36:00;11.40;1.00
6206;DHT22;3136;48.788;9.772;2023-11-21T12:38:34;11.30;99.90
6206;DHT22;3136;48.788;9.772;2023-11-21T12:41:00;11.30;1.00
6206;DHT22;3136;48.788;9.772;2023-11-21T12:43:26;11.10;99.90
6206;DHT22;3136;48.788;9.772;2023-11-21T12:46:10;11.10;99.90
6206;DHT22;3136;48.788;9.772;2023-11-21T12:48:44;11.10;99.90
6206;DHT22;3136;48.788;9.772;2023-11-21T12:51:11;11.00;1.00
6206;DHT22;3136;48.788;9.772;2023-11-21T12:53:40;11.00;99.90
6206;DHT22;3136;48.788;9.772;2023-11-21T12:56:07;11.00;99.90
6206;DHT22;3136;48.788;9.772;2023-11-21T12:58:38;11.10;99.90
6206;DHT22;3136;48.788;9.772;2023-11-21T13:01:07;11.00;1.00
6206;DHT22;3136;48.788;9.772;2023-11-21T13:03:45;11.00;1.00
6206;DHT22;3136;48.788;9.772;2023-11-21T13:06:14;11.00;1.00
6206;DHT22;3136;48.788;9.772;2023-11-21T13:08:40;11.00;1.00
6206;DHT22;3136;48.788;9.772;2023-11-21T13:11:06;11.10;1.00
6206;DHT22;3136;48.788;9.772;2023-11-21T13:13:32;11.00;1.00
6206;DHT22;3136;48.788;9.772;2023-11-21T13:16:00;10.80;83.40
6206;DHT22;3136;48.788;9.772;2023-11-21T13:18:29;10.60;1.00
6206;DHT22;3136;48.788;9.772;2023-11-21T13:20:59;10.50;99.90
6206;DHT22;3136;48.788;9.772;2023-11-21T13:23:26;10.40;99.90
6206;DHT22;3136;48.788;9.772;2023-11-21T13:25:52;10.30;1.00
6206;DHT22;3136;48.788;9.772;2023-11-21T13:28:18;10.20;1.00
6206;DHT22;3136;48.788;9.772;2023-11-21T13:30:46;10.10;99.90
6206;DHT22;3136;48.788;9.772;2023-11-21T13:33:13;10.00;99.90
6206;DHT22;3136;48.788;9.772;2023-11-21T13:35:44;9.90;1.00
6206;DHT22;3136;48.788;9.772;2023-11-21T13:38:15;9.80;1.00
6206;DHT22;3136;48.788;9.772;2023-11-21T13:40:46;9.80;1.00
6206;DHT22;3136;48.788;9.772;2023-11-21T13:43:17;9.80;99.90
6206;DHT22;3136;48.788;9.772;2023-11-21T13:45:48;9.80;99.90
6206;DHT22;3136;48.788;9.772;2023-11-21T13:48:17;9.70;99.90
6206;DHT22;3136;48.788;9.772;2023-11-21T13:50:45;9.60;99.90
6206;DHT22;3136;48.788;9.772;2023-11-21T13:53:21;9.60;99.90
6206;DHT22;3136;48.788;9.772;2023-11-21T13:55:50;9.60;99.90
6206;DHT22;3136;48.788;9.772;2023-11-21T13:58:17;9.60;99.90
6206;DHT22;3136;48.788;9.772;2023-11-21T14:00:48;9.60;99.90
6206;DHT22;3136;48.788;9.772;2023-11-21T14:03:21;9.70;99.90
6206;DHT22;3136;48.788;9.772;2023-11-21T14:05:48;9.70;99.90
6206;DHT22;3136;48.788;9.772;2023-11-21T14:08:18;9.80;99.90
6206;DHT22;3136;48.788;9.772;2023-11-21T14:10:45;9.80;99.90
6206;DHT22;3136;48.788;9.772;2023-11-21T14:13:19;9.80;99.90
6206;DHT22;3136;48.788;9.772;2023-11-21T14:15:48;9.80;99.90
6206;DHT22;3136;48.788;9.772;2023-11-21T14:18:16;9.70;99.90
6206;DHT22;3136;48.788;9.772;2023-11-21T14:20:43;9.70;99.90
6206;DHT22;3136;48.788;9.772;2023-11-21T14:23:10;9.70;99.90
6206;DHT22;3136;48.788;9.772;2023-11-21T14:25:36;9.70;1.00
6206;DHT22;3136;48.788;9.772;2023-11-21T14:28:03;9.60;1.00
6206;DHT22;3136;48.788;9.772;2023-11-21T14:30:29;9.50;99.90
6206;DHT22;3136;48.788;9.772;2023-11-21T14:32:58;9.40;99.90
6206;DHT22;3136;48.788;9.772;2023-11-21T14:35:23;9.30;99.90
6206;DHT22;3136;48.788;9.772;2023-11-21T14:37:49;9.20;99.90
6206;DHT22;3136;48.788;9.772;2023-11-21T14:40:15;9.10;1.00
6206;DHT22;3136;48.788;9.772;2023-11-21T14:42:42;9.00;1.00
6206;DHT22;3136;48.788;9.772;2023-11-21T14:45:08;9.00;1.00
6206;DHT22;3136;48.788;9.772;2023-11-21T14:47:37;8.90;1.00
6206;DHT22;3136;48.788;9.772;2023-11-21T14:50:07;8.80;1.00
6206;DHT22;3136;48.788;9.772;2023-11-21T14:52:53;8.80;1.00
6206;DHT22;3136;48.788;9.772;2023-11-21T14:55:24;8.70;1.00
6206;DHT22;3136;48.788;9.772;2023-11-21T14:58:08;8.70;1.00
6206;DHT22;3136;48.788;9.772;2023-11-21T15:00:38;8.70;1.00
6206;DHT22;3136;48.788;9.772;2023-11-21T15:03:10;8.70;1.00
6206;DHT22;3136;48.788;9.772;2023-11-21T15:05:43;8.70;1.00
6206;DHT22;3136;48.788;9.772;2023-11-21T15:08:09;8.70;1.00
6206;DHT22;3136;48.788;9.772;2023-11-21T15:10:45;8.70;1.00
6206;DHT22;3136;48.788;9.772;2023-11-21T15:13:13;8.70;1.00
6206;DHT22;3136;48.788;9.772;2023-11-21T15:15:41;8.70;1.00
6206;DHT22;3136;48.788;9.772;2023-11-21T15:18:07;8.70;1.00
6206;DHT22;3136;48.788;9.772;2023-11-21T15:20:33;8.60;1.00
6206;DHT22;3136;48.788;9.772;2023-11-21T15:22:58;8.60;1.00
6206;DHT22;3136;48.788;9.772;2023-11-21T15:25:25;8.60;1.00
6206;DHT22;3136;48.788;9.772;2023-11-21T15:27:50;8.60;1.00
6206;DHT22;3136;48.788;9.772;2023-11-21T15:30:16;8.60;1.00
6206;DHT22;3136;48.788;9.772;2023-11-21T15:32:50;8.50;1.00
6206;DHT22;3136;48.788;9.772;2023-11-21T15:35:18;8.20;1.00
6206;DHT22;3136;48.788;9.772;2023-11-21T15:37:43;8.50;1.00
6206;DHT22;3136;48.788;9.772;2023-11-21T15:40:10;8.50;1.00
6206;DHT22;3136;48.788;9.772;2023-11-21T15:42:36;8.50;1.00
6206;DHT22;3136;48.788;9.772;2023-11-21T15:45:03;8.50;1.00
6206;DHT22;3136;48.788;9.772;2023-11-21T15:47:32;8.50;1.00
6206;DHT22;3136;48.788;9.772;2023-11-21T15:49:58;8.50;1.00
6206;DHT22;3136;48.788;9.772;2023-11-21T15:52:24;8.40;1.00
6206;DHT22;3136;48.788;9.772;2023-11-21T15:54:49;8.40;1.00
6206;DHT22;3136;48.788;9.772;2023-11-21T15:57:15;8.60;1.00
6206;DHT22;3136;48.788;9.772;2023-11-21T15:59:42;8.40;1.00
6206;DHT22;3136;48.788;9.772;2023-11-21T16:02:08;8.40;1.00
6206;DHT22;3136;48.788;9.772;2023-11-21T16:04:36;8.40;1.00
6206;DHT22;3136;48.788;9.772;2023-11-21T16:07:03;8.40;1.00
6206;DHT22;3136;48.788;9.772;2023-11-21T16:09:31;8.40;1.00
6206;DHT22;3136;48.788;9.772;2023-11-21T16:11:57;8.40;1.00
6206;DHT22;3136;48.788;9.772;2023-11-21T16:14:31;8.40;1.00
6206;DHT22;3136;48.788;9.772;2023-11-21T16:17:02;8.40;1.00
6206;DHT22;3136;48.788;9.772;2023-11-21T16:19:28;8.40;1.00
6206;DHT22;3136;48.788;9.772;2023-11-21T16:21:56;8.40;1.00
6206;DHT22;3136;48.788;9.772;2023-11-21T16:24:22;8.40;1.00
6206;DHT22;3136;48.788;9.772;2023-11-21T16:26:48;8.40;1.00
6206;DHT22;3136;48.788;9.772;2023-11-21T16:29:14;8.40;1.00
6206;DHT22;3136;48.788;9.772;2023-11-21T16:31:40;8.40;1.00